sensor_id;sensor_type;location;lat;lon;timestamp;P1;durP1;ratioP1;P2;durP2;ratioP2
17141;SDS011;32805;53.556;9.944;2023-04-06T00:01:40;3.22;;;2.67;;
17141;SDS011;32805;53.556;9.944;2023-04-06T00:04:09;3.70;;;3.08;;
17141;SDS011;32805;53.556;9.944;2023-04-06T00:06:38;3.97;;;3.00;;
17141;SDS011;32805;53.556;9.944;2023-04-06T00:09:05;3.80;;;2.67;;
17141;SDS011;32805;53.556;9.944;2023-04-06T00:11:33;7.10;;;2.67;;
17141;SDS011;32805;53.556;9.944;2023-04-06T00:14:01;5.25;;;2.63;;
17141;SDS011;32805;53.556;9.944;2023-04-06T00:16:29;3.92;;;2.78;;
17141;SDS011;32805;53.556;9.944;2023-04-06T00:18:57;3.80;;;2.95;;
17141;SDS011;32805;53.556;9.944;2023-04-06T00:21:26;3.35;;;3.00;;
17141;SDS011;32805;53.556;9.944;2023-04-06T00:23:53;3.85;;;3.10;;
17141;SDS011;32805;53.556;9.944;2023-04-06T00:26:21;3.97;;;3.00;;
17141;SDS011;32805;53.556;9.944;2023-04-06T00:28:49;5.35;;;3.38;;
17141;SDS011;32805;53.556;9.944;2023-04-06T00:31:18;4.72;;;2.95;;
17141;SDS011;32805;53.556;9.944;2023-04-06T00:33:47;4.65;;;3.00;;
17141;SDS011;32805;53.556;9.944;2023-04-06T00:36:15;3.80;;;2.53;;
17141;SDS011;32805;53.556;9.944;2023-04-06T00:38:44;3.67;;;3.05;;
17141;SDS011;32805;53.556;9.944;2023-04-06T00:41:12;4.50;;;3.38;;
17141;SDS011;32805;53.556;9.944;2023-04-06T00:43:40;5.40;;;3.25;;
17141;SDS011;32805;53.556;9.944;2023-04-06T00:46:08;7.18;;;3.08;;
17141;SDS011;32805;53.556;9.944;2023-04-06T00:48:36;5.45;;;2.95;;
17141;SDS011;32805;53.556;9.944;2023-04-06T00:51:05;4.20;;;2.80;;
17141;SDS011;32805;53.556;9.944;2023-04-06T00:53:33;7.10;;;3.47;;
17141;SDS011;32805;53.556;9.944;2023-04-06T00:56:03;3.95;;;3.15;;
17141;SDS011;32805;53.556;9.944;2023-04-06T00:58:42;3.70;;;2.95;;
17141;SDS011;32805;53.556;9.944;2023-04-06T01:01:10;6.25;;;3.38;;
17141;SDS011;32805;53.556;9.944;2023-04-06T01:03:39;3.28;;;2.97;;
17141;SDS011;32805;53.556;9.944;2023-04-06T01:06:11;3.85;;;3.28;;
17141;SDS011;32805;53.556;9.944;2023-04-06T01:08:41;4.93;;;3.05;;
17141;SDS011;32805;53.556;9.944;2023-04-06T01:11:22;4.80;;;3.20;;
17141;SDS011;32805;53.556;9.944;2023-04-06T01:13:51;3.80;;;3.33;;
17141;SDS011;32805;53.556;9.944;2023-04-06T01:16:25;3.55;;;3.10;;
17141;SDS011;32805;53.556;9.944;2023-04-06T01:19:06;4.47;;;3.28;;
17141;SDS011;32805;53.556;9.944;2023-04-06T01:21:35;5.47;;;3.97;;
17141;SDS011;32805;53.556;9.944;2023-04-06T01:24:30;5.43;;;3.38;;
17141;SDS011;32805;53.556;9.944;2023-04-06T01:27:18;5.45;;;3.58;;
17141;SDS011;32805;53.556;9.944;2023-04-06T01:29:55;3.65;;;3.25;;
17141;SDS011;32805;53.556;9.944;2023-04-06T01:32:37;6.63;;;3.65;;
17141;SDS011;32805;53.556;9.944;2023-04-06T01:35:07;4.85;;;3.88;;
17141;SDS011;32805;53.556;9.944;2023-04-06T01:37:41;5.70;;;3.65;;
17141;SDS011;32805;53.556;9.944;2023-04-06T01:40:14;4.10;;;3.30;;
17141;SDS011;32805;53.556;9.944;2023-04-06T01:42:46;5.90;;;3.50;;
17141;SDS011;32805;53.556;9.944;2023-04-06T01:45:21;5.72;;;3.78;;
17141;SDS011;32805;53.556;9.944;2023-04-06T01:47:52;6.43;;;3.95;;
17141;SDS011;32805;53.556;9.944;2023-04-06T01:50:23;5.90;;;3.95;;
17141;SDS011;32805;53.556;9.944;2023-04-06T01:52:51;4.47;;;3.60;;
17141;SDS011;32805;53.556;9.944;2023-04-06T01:55:20;5.80;;;3.65;;
17141;SDS011;32805;53.556;9.944;2023-04-06T01:58:14;5.63;;;3.60;;
17141;SDS011;32805;53.556;9.944;2023-04-06T02:00:42;5.85;;;3.80;;
17141;SDS011;32805;53.556;9.944;2023-04-06T02:03:10;7.15;;;3.90;;
17141;SDS011;32805;53.556;9.944;2023-04-06T02:05:38;6.50;;;4.20;;
17141;SDS011;32805;53.556;9.944;2023-04-06T02:08:17;5.50;;;3.75;;
17141;SDS011;32805;53.556;9.944;2023-04-06T02:10:46;4.72;;;3.90;;
17141;SDS011;32805;53.556;9.944;2023-04-06T02:13:24;6.03;;;3.92;;
17141;SDS011;32805;53.556;9.944;2023-04-06T02:15:53;4.30;;;3.50;;
17141;SDS011;32805;53.556;9.944;2023-04-06T02:18:21;8.75;;;4.50;;
17141;SDS011;32805;53.556;9.944;2023-04-06T02:20:49;5.85;;;4.40;;
17141;SDS011;32805;53.556;9.944;2023-04-06T02:23:16;6.20;;;4.10;;
17141;SDS011;32805;53.556;9.944;2023-04-06T02:25:44;7.93;;;4.78;;
17141;SDS011;32805;53.556;9.944;2023-04-06T02:28:13;6.88;;;4.38;;
17141;SDS011;32805;53.556;9.944;2023-04-06T02:30:41;5.50;;;3.97;;
17141;SDS011;32805;53.556;9.944;2023-04-06T02:33:09;5.85;;;3.80;;
17141;SDS011;32805;53.556;9.944;2023-04-06T02:35:41;7.78;;;4.65;;
17141;SDS011;32805;53.556;9.944;2023-04-06T02:38:11;6.72;;;4.18;;
17141;SDS011;32805;53.556;9.944;2023-04-06T02:40:39;5.90;;;4.47;;
17141;SDS011;32805;53.556;9.944;2023-04-06T02:43:34;7.47;;;4.50;;
17141;SDS011;32805;53.556;9.944;2023-04-06T02:46:19;8.65;;;4.93;;
17141;SDS011;32805;53.556;9.944;2023-04-06T02:48:47;5.75;;;4.60;;
17141;SDS011;32805;53.556;9.944;2023-04-06T02:51:15;7.32;;;3.95;;
17141;SDS011;32805;53.556;9.944;2023-04-06T02:53:48;7.05;;;4.40;;
17141;SDS011;32805;53.556;9.944;2023-04-06T02:56:16;4.53;;;4.05;;
17141;SDS011;32805;53.556;9.944;2023-04-06T02:58:49;6.13;;;4.53;;
17141;SDS011;32805;53.556;9.944;2023-04-06T03:01:23;5.43;;;4.28;;
17141;SDS011;32805;53.556;9.944;2023-04-06T03:03:56;5.38;;;4.88;;
17141;SDS011;32805;53.556;9.944;2023-04-06T03:06:26;7.10;;;5.78;;
17141;SDS011;32805;53.556;9.944;2023-04-06T03:09:00;6.25;;;4.82;;
17141;SDS011;32805;53.556;9.944;2023-04-06T03:11:28;5.13;;;4.60;;
17141;SDS011;32805;53.556;9.944;2023-04-06T03:13:57;6.85;;;5.38;;
17141;SDS011;32805;53.556;9.944;2023-04-06T03:16:25;7.95;;;5.35;;
17141;SDS011;32805;53.556;9.944;2023-04-06T03:18:53;7.47;;;5.25;;
17141;SDS011;32805;53.556;9.944;2023-04-06T03:21:21;10.48;;;5.85;;
17141;SDS011;32805;53.556;9.944;2023-04-06T03:23:51;7.43;;;5.78;;
17141;SDS011;32805;53.556;9.944;2023-04-06T03:26:18;8.23;;;6.38;;
17141;SDS011;32805;53.556;9.944;2023-04-06T03:28:50;7.45;;;5.65;;
17141;SDS011;32805;53.556;9.944;2023-04-06T03:31:22;7.70;;;5.63;;
17141;SDS011;32805;53.556;9.944;2023-04-06T03:34:05;7.57;;;5.90;;
17141;SDS011;32805;53.556;9.944;2023-04-06T03:36:35;7.00;;;6.05;;
17141;SDS011;32805;53.556;9.944;2023-04-06T03:39:03;7.75;;;6.32;;
17141;SDS011;32805;53.556;9.944;2023-04-06T03:41:35;7.95;;;5.72;;
17141;SDS011;32805;53.556;9.944;2023-04-06T03:44:11;9.27;;;6.60;;
17141;SDS011;32805;53.556;9.944;2023-04-06T03:46:40;8.65;;;6.03;;
17141;SDS011;32805;53.556;9.944;2023-04-06T03:49:09;7.43;;;6.47;;
17141;SDS011;32805;53.556;9.944;2023-04-06T03:51:37;7.25;;;5.90;;
17141;SDS011;32805;53.556;9.944;2023-04-06T03:54:07;7.15;;;6.03;;
17141;SDS011;32805;53.556;9.944;2023-04-06T03:56:35;9.77;;;7.00;;
17141;SDS011;32805;53.556;9.944;2023-04-06T03:59:03;7.57;;;6.60;;
17141;SDS011;32805;53.556;9.944;2023-04-06T04:01:32;8.15;;;6.95;;
17141;SDS011;32805;53.556;9.944;2023-04-06T04:04:02;7.63;;;6.38;;
17141;SDS011;32805;53.556;9.944;2023-04-06T04:06:30;8.65;;;7.05;;
17141;SDS011;32805;53.556;9.944;2023-04-06T04:08:58;7.75;;;6.95;;
17141;SDS011;32805;53.556;9.944;2023-04-06T04:11:27;7.68;;;6.88;;
17141;SDS011;32805;53.556;9.944;2023-04-06T04:13:57;10.02;;;7.47;;
17141;SDS011;32805;53.556;9.944;2023-04-06T04:16:24;12.70;;;7.35;;
17141;SDS011;32805;53.556;9.944;2023-04-06T04:18:52;9.55;;;7.95;;
17141;SDS011;32805;53.556;9.944;2023-04-06T04:21:21;9.05;;;8.10;;
17141;SDS011;32805;53.556;9.944;2023-04-06T04:23:49;8.80;;;6.75;;
17141;SDS011;32805;53.556;9.944;2023-04-06T04:26:16;10.20;;;7.22;;
17141;SDS011;32805;53.556;9.944;2023-04-06T04:28:45;9.70;;;7.05;;
17141;SDS011;32805;53.556;9.944;2023-04-06T04:31:13;9.68;;;7.00;;
17141;SDS011;32805;53.556;9.944;2023-04-06T04:33:45;9.02;;;6.88;;
17141;SDS011;32805;53.556;9.944;2023-04-06T04:36:22;9.70;;;7.25;;
17141;SDS011;32805;53.556;9.944;2023-04-06T04:38:51;8.20;;;6.97;;
17141;SDS011;32805;53.556;9.944;2023-04-06T04:41:20;10.48;;;6.90;;
17141;SDS011;32805;53.556;9.944;2023-04-06T04:43:49;8.00;;;6.60;;
17141;SDS011;32805;53.556;9.944;2023-04-06T04:46:21;9.32;;;7.13;;
17141;SDS011;32805;53.556;9.944;2023-04-06T04:48:49;11.07;;;7.53;;
17141;SDS011;32805;53.556;9.944;2023-04-06T04:51:17;10.23;;;7.57;;
17141;SDS011;32805;53.556;9.944;2023-04-06T04:54:06;11.55;;;7.22;;
17141;SDS011;32805;53.556;9.944;2023-04-06T04:56:34;10.90;;;7.85;;
17141;SDS011;32805;53.556;9.944;2023-04-06T04:59:11;7.55;;;6.72;;
17141;SDS011;32805;53.556;9.944;2023-04-06T05:01:43;10.68;;;7.72;;
17141;SDS011;32805;53.556;9.944;2023-04-06T05:04:25;8.65;;;7.00;;
17141;SDS011;32805;53.556;9.944;2023-04-06T05:07:03;9.15;;;7.45;;
17141;SDS011;32805;53.556;9.944;2023-04-06T05:09:34;11.00;;;7.78;;
17141;SDS011;32805;53.556;9.944;2023-04-06T05:12:02;10.48;;;7.70;;
17141;SDS011;32805;53.556;9.944;2023-04-06T05:14:35;9.88;;;7.53;;
17141;SDS011;32805;53.556;9.944;2023-04-06T05:17:09;9.43;;;6.95;;
17141;SDS011;32805;53.556;9.944;2023-04-06T05:19:37;9.10;;;7.25;;
17141;SDS011;32805;53.556;9.944;2023-04-06T05:22:04;10.15;;;7.38;;
17141;SDS011;32805;53.556;9.944;2023-04-06T05:24:36;11.60;;;7.78;;
17141;SDS011;32805;53.556;9.944;2023-04-06T05:27:05;9.07;;;7.40;;
17141;SDS011;32805;53.556;9.944;2023-04-06T05:29:33;9.02;;;7.50;;
17141;SDS011;32805;53.556;9.944;2023-04-06T05:32:01;8.10;;;7.25;;
17141;SDS011;32805;53.556;9.944;2023-04-06T05:34:29;10.40;;;7.32;;
17141;SDS011;32805;53.556;9.944;2023-04-06T05:37:01;9.73;;;8.05;;
17141;SDS011;32805;53.556;9.944;2023-04-06T05:39:29;8.13;;;7.22;;
17141;SDS011;32805;53.556;9.944;2023-04-06T05:42:01;11.02;;;8.13;;
17141;SDS011;32805;53.556;9.944;2023-04-06T05:44:44;10.43;;;8.02;;
17141;SDS011;32805;53.556;9.944;2023-04-06T05:47:14;9.75;;;7.25;;
17141;SDS011;32805;53.556;9.944;2023-04-06T05:49:45;9.68;;;7.35;;
17141;SDS011;32805;53.556;9.944;2023-04-06T05:52:21;11.07;;;7.47;;
17141;SDS011;32805;53.556;9.944;2023-04-06T05:54:49;11.23;;;7.88;;
17141;SDS011;32805;53.556;9.944;2023-04-06T05:57:18;8.73;;;6.93;;
17141;SDS011;32805;53.556;9.944;2023-04-06T05:59:47;8.90;;;7.03;;
17141;SDS011;32805;53.556;9.944;2023-04-06T06:02:15;11.73;;;8.55;;
17141;SDS011;32805;53.556;9.944;2023-04-06T06:04:46;12.30;;;8.00;;
17141;SDS011;32805;53.556;9.944;2023-04-06T06:07:16;13.63;;;8.57;;
17141;SDS011;32805;53.556;9.944;2023-04-06T06:09:58;12.20;;;8.65;;
17141;SDS011;32805;53.556;9.944;2023-04-06T06:12:32;12.18;;;8.55;;
17141;SDS011;32805;53.556;9.944;2023-04-06T06:15:00;13.93;;;8.77;;
17141;SDS011;32805;53.556;9.944;2023-04-06T06:17:30;11.27;;;8.55;;
17141;SDS011;32805;53.556;9.944;2023-04-06T06:19:58;13.15;;;9.48;;
17141;SDS011;32805;53.556;9.944;2023-04-06T06:22:27;16.60;;;8.70;;
17141;SDS011;32805;53.556;9.944;2023-04-06T06:24:55;12.60;;;9.70;;
17141;SDS011;32805;53.556;9.944;2023-04-06T06:27:23;9.93;;;8.15;;
17141;SDS011;32805;53.556;9.944;2023-04-06T06:29:52;9.88;;;8.23;;
17141;SDS011;32805;53.556;9.944;2023-04-06T06:32:22;11.70;;;8.38;;
17141;SDS011;32805;53.556;9.944;2023-04-06T06:34:51;11.35;;;8.43;;
17141;SDS011;32805;53.556;9.944;2023-04-06T06:37:19;13.13;;;8.88;;
17141;SDS011;32805;53.556;9.944;2023-04-06T06:39:48;11.88;;;9.23;;
17141;SDS011;32805;53.556;9.944;2023-04-06T06:42:17;13.38;;;8.60;;
17141;SDS011;32805;53.556;9.944;2023-04-06T06:45:03;13.82;;;9.65;;
17141;SDS011;32805;53.556;9.944;2023-04-06T06:47:32;10.15;;;8.43;;
17141;SDS011;32805;53.556;9.944;2023-04-06T06:49:59;11.65;;;8.40;;
17141;SDS011;32805;53.556;9.944;2023-04-06T06:52:28;9.38;;;8.02;;
17141;SDS011;32805;53.556;9.944;2023-04-06T06:54:56;11.70;;;8.20;;
17141;SDS011;32805;53.556;9.944;2023-04-06T06:57:24;11.43;;;8.43;;
17141;SDS011;32805;53.556;9.944;2023-04-06T06:59:53;9.65;;;7.60;;
17141;SDS011;32805;53.556;9.944;2023-04-06T07:02:22;10.93;;;8.13;;
17141;SDS011;32805;53.556;9.944;2023-04-06T07:04:50;10.65;;;7.80;;
17141;SDS011;32805;53.556;9.944;2023-04-06T07:07:18;9.55;;;7.97;;
17141;SDS011;32805;53.556;9.944;2023-04-06T07:09:46;10.45;;;7.55;;
17141;SDS011;32805;53.556;9.944;2023-04-06T07:12:14;9.20;;;7.35;;
17141;SDS011;32805;53.556;9.944;2023-04-06T07:14:42;11.48;;;8.18;;
17141;SDS011;32805;53.556;9.944;2023-04-06T07:17:11;12.15;;;8.52;;
17141;SDS011;32805;53.556;9.944;2023-04-06T07:19:40;10.10;;;7.38;;
17141;SDS011;32805;53.556;9.944;2023-04-06T07:22:08;9.68;;;7.53;;
17141;SDS011;32805;53.556;9.944;2023-04-06T07:24:36;10.07;;;7.63;;
17141;SDS011;32805;53.556;9.944;2023-04-06T07:27:04;10.13;;;7.40;;
17141;SDS011;32805;53.556;9.944;2023-04-06T07:29:32;11.75;;;7.60;;
17141;SDS011;32805;53.556;9.944;2023-04-06T07:32:00;7.35;;;6.65;;
17141;SDS011;32805;53.556;9.944;2023-04-06T07:34:28;7.72;;;6.05;;
17141;SDS011;32805;53.556;9.944;2023-04-06T07:36:57;10.05;;;6.47;;
17141;SDS011;32805;53.556;9.944;2023-04-06T07:39:29;8.25;;;5.72;;
17141;SDS011;32805;53.556;9.944;2023-04-06T07:41:58;7.63;;;5.93;;
17141;SDS011;32805;53.556;9.944;2023-04-06T07:44:26;6.85;;;5.88;;
17141;SDS011;32805;53.556;9.944;2023-04-06T07:46:54;5.72;;;5.10;;
17141;SDS011;32805;53.556;9.944;2023-04-06T07:49:22;9.45;;;5.80;;
17141;SDS011;32805;53.556;9.944;2023-04-06T07:51:50;7.00;;;4.90;;
17141;SDS011;32805;53.556;9.944;2023-04-06T07:54:19;9.27;;;5.50;;
17141;SDS011;32805;53.556;9.944;2023-04-06T07:56:47;7.47;;;4.85;;
17141;SDS011;32805;53.556;9.944;2023-04-06T07:59:15;9.60;;;5.20;;
17141;SDS011;32805;53.556;9.944;2023-04-06T08:01:42;7.68;;;5.20;;
17141;SDS011;32805;53.556;9.944;2023-04-06T08:04:10;8.25;;;5.60;;
17141;SDS011;32805;53.556;9.944;2023-04-06T08:06:38;8.45;;;5.95;;
17141;SDS011;32805;53.556;9.944;2023-04-06T08:09:07;7.40;;;5.53;;
17141;SDS011;32805;53.556;9.944;2023-04-06T08:11:36;8.38;;;5.22;;
17141;SDS011;32805;53.556;9.944;2023-04-06T08:14:04;6.97;;;5.78;;
17141;SDS011;32805;53.556;9.944;2023-04-06T08:16:31;6.07;;;5.20;;
17141;SDS011;32805;53.556;9.944;2023-04-06T08:18:59;6.70;;;5.40;;
17141;SDS011;32805;53.556;9.944;2023-04-06T08:21:27;8.07;;;5.28;;
17141;SDS011;32805;53.556;9.944;2023-04-06T08:23:54;6.15;;;4.82;;
17141;SDS011;32805;53.556;9.944;2023-04-06T08:26:22;7.95;;;4.70;;
17141;SDS011;32805;53.556;9.944;2023-04-06T08:28:51;6.70;;;5.60;;
17141;SDS011;32805;53.556;9.944;2023-04-06T08:31:19;6.25;;;4.90;;
17141;SDS011;32805;53.556;9.944;2023-04-06T08:33:46;7.55;;;5.35;;
17141;SDS011;32805;53.556;9.944;2023-04-06T08:36:14;9.23;;;5.78;;
17141;SDS011;32805;53.556;9.944;2023-04-06T08:38:44;6.35;;;4.95;;
17141;SDS011;32805;53.556;9.944;2023-04-06T08:41:12;8.13;;;4.93;;
17141;SDS011;32805;53.556;9.944;2023-04-06T08:43:42;9.32;;;5.40;;
17141;SDS011;32805;53.556;9.944;2023-04-06T08:46:12;7.25;;;5.53;;
17141;SDS011;32805;53.556;9.944;2023-04-06T08:48:41;7.03;;;5.38;;
17141;SDS011;32805;53.556;9.944;2023-04-06T08:51:09;5.85;;;5.15;;
17141;SDS011;32805;53.556;9.944;2023-04-06T08:53:37;7.60;;;5.28;;
17141;SDS011;32805;53.556;9.944;2023-04-06T08:56:05;5.43;;;4.82;;
17141;SDS011;32805;53.556;9.944;2023-04-06T08:58:37;6.65;;;4.75;;
17141;SDS011;32805;53.556;9.944;2023-04-06T09:01:07;28.05;;;12.70;;
17141;SDS011;32805;53.556;9.944;2023-04-06T09:03:38;22.98;;;13.57;;
17141;SDS011;32805;53.556;9.944;2023-04-06T09:06:07;41.28;;;18.52;;
17141;SDS011;32805;53.556;9.944;2023-04-06T09:08:37;9.80;;;7.28;;
17141;SDS011;32805;53.556;9.944;2023-04-06T09:11:06;7.97;;;5.80;;
17141;SDS011;32805;53.556;9.944;2023-04-06T09:13:43;11.45;;;5.60;;
17141;SDS011;32805;53.556;9.944;2023-04-06T09:16:12;9.45;;;6.72;;
17141;SDS011;32805;53.556;9.944;2023-04-06T09:18:41;25.08;;;12.15;;
17141;SDS011;32805;53.556;9.944;2023-04-06T09:21:10;22.77;;;11.52;;
17141;SDS011;32805;53.556;9.944;2023-04-06T09:23:38;14.80;;;8.23;;
17141;SDS011;32805;53.556;9.944;2023-04-06T09:26:06;9.77;;;5.80;;
17141;SDS011;32805;53.556;9.944;2023-04-06T09:28:45;6.43;;;5.03;;
17141;SDS011;32805;53.556;9.944;2023-04-06T09:31:14;7.63;;;5.45;;
17141;SDS011;32805;53.556;9.944;2023-04-06T09:33:45;12.18;;;7.13;;
17141;SDS011;32805;53.556;9.944;2023-04-06T09:36:13;8.30;;;5.18;;
17141;SDS011;32805;53.556;9.944;2023-04-06T09:38:51;13.98;;;7.70;;
17141;SDS011;32805;53.556;9.944;2023-04-06T09:41:22;10.73;;;6.85;;
17141;SDS011;32805;53.556;9.944;2023-04-06T09:43:51;7.45;;;5.05;;
17141;SDS011;32805;53.556;9.944;2023-04-06T09:46:20;8.23;;;5.15;;
17141;SDS011;32805;53.556;9.944;2023-04-06T09:48:51;7.90;;;4.68;;
17141;SDS011;32805;53.556;9.944;2023-04-06T09:51:19;10.57;;;5.43;;
17141;SDS011;32805;53.556;9.944;2023-04-06T09:53:49;6.95;;;4.05;;
17141;SDS011;32805;53.556;9.944;2023-04-06T09:56:23;8.30;;;4.57;;
17141;SDS011;32805;53.556;9.944;2023-04-06T09:58:56;6.47;;;4.22;;
17141;SDS011;32805;53.556;9.944;2023-04-06T10:01:29;5.57;;;3.78;;
17141;SDS011;32805;53.556;9.944;2023-04-06T10:04:03;5.05;;;3.75;;
17141;SDS011;32805;53.556;9.944;2023-04-06T10:06:46;5.30;;;3.20;;
17141;SDS011;32805;53.556;9.944;2023-04-06T10:09:18;4.47;;;3.60;;
17141;SDS011;32805;53.556;9.944;2023-04-06T10:11:50;4.78;;;3.72;;
17141;SDS011;32805;53.556;9.944;2023-04-06T10:14:19;5.35;;;3.63;;
17141;SDS011;32805;53.556;9.944;2023-04-06T10:16:47;8.85;;;3.65;;
17141;SDS011;32805;53.556;9.944;2023-04-06T10:19:18;5.63;;;3.60;;
17141;SDS011;32805;53.556;9.944;2023-04-06T10:21:50;5.57;;;3.83;;
17141;SDS011;32805;53.556;9.944;2023-04-06T10:24:21;4.60;;;3.80;;
17141;SDS011;32805;53.556;9.944;2023-04-06T10:26:56;6.45;;;3.40;;
17141;SDS011;32805;53.556;9.944;2023-04-06T10:29:24;5.50;;;3.85;;
17141;SDS011;32805;53.556;9.944;2023-04-06T10:31:52;6.07;;;3.78;;
17141;SDS011;32805;53.556;9.944;2023-04-06T10:34:23;5.00;;;3.30;;
17141;SDS011;32805;53.556;9.944;2023-04-06T10:37:10;5.50;;;3.47;;
17141;SDS011;32805;53.556;9.944;2023-04-06T10:39:45;4.45;;;3.33;;
17141;SDS011;32805;53.556;9.944;2023-04-06T10:42:14;5.03;;;3.67;;
17141;SDS011;32805;53.556;9.944;2023-04-06T10:44:42;4.78;;;3.70;;
17141;SDS011;32805;53.556;9.944;2023-04-06T10:47:15;4.80;;;3.72;;
17141;SDS011;32805;53.556;9.944;2023-04-06T10:49:45;4.32;;;3.75;;
17141;SDS011;32805;53.556;9.944;2023-04-06T10:52:13;7.18;;;4.28;;
17141;SDS011;32805;53.556;9.944;2023-04-06T10:54:41;5.03;;;3.72;;
17141;SDS011;32805;53.556;9.944;2023-04-06T10:57:12;5.90;;;3.90;;
17141;SDS011;32805;53.556;9.944;2023-04-06T10:59:41;4.80;;;3.50;;
17141;SDS011;32805;53.556;9.944;2023-04-06T11:02:18;4.97;;;3.63;;
17141;SDS011;32805;53.556;9.944;2023-04-06T11:04:55;7.05;;;4.40;;
17141;SDS011;32805;53.556;9.944;2023-04-06T11:07:23;4.88;;;3.92;;
17141;SDS011;32805;53.556;9.944;2023-04-06T11:09:53;5.18;;;4.18;;
17141;SDS011;32805;53.556;9.944;2023-04-06T11:12:39;4.80;;;4.13;;
17141;SDS011;32805;53.556;9.944;2023-04-06T11:15:07;6.00;;;4.65;;
17141;SDS011;32805;53.556;9.944;2023-04-06T11:17:36;5.65;;;4.45;;
17141;SDS011;32805;53.556;9.944;2023-04-06T11:20:09;5.75;;;4.45;;
17141;SDS011;32805;53.556;9.944;2023-04-06T11:22:47;6.35;;;4.88;;
17141;SDS011;32805;53.556;9.944;2023-04-06T11:25:16;5.72;;;4.90;;
17141;SDS011;32805;53.556;9.944;2023-04-06T11:27:44;7.93;;;4.30;;
17141;SDS011;32805;53.556;9.944;2023-04-06T11:30:13;5.63;;;4.30;;
17141;SDS011;32805;53.556;9.944;2023-04-06T11:32:42;5.50;;;4.32;;
17141;SDS011;32805;53.556;9.944;2023-04-06T11:35:13;6.18;;;4.88;;
17141;SDS011;32805;53.556;9.944;2023-04-06T11:37:48;7.65;;;5.25;;
17141;SDS011;32805;53.556;9.944;2023-04-06T11:40:20;7.65;;;4.93;;
17141;SDS011;32805;53.556;9.944;2023-04-06T11:42:51;7.50;;;5.53;;
17141;SDS011;32805;53.556;9.944;2023-04-06T11:45:20;9.98;;;5.00;;
17141;SDS011;32805;53.556;9.944;2023-04-06T11:47:55;7.03;;;4.80;;
17141;SDS011;32805;53.556;9.944;2023-04-06T11:50:31;7.70;;;5.00;;
17141;SDS011;32805;53.556;9.944;2023-04-06T11:52:59;6.53;;;5.18;;
17141;SDS011;32805;53.556;9.944;2023-04-06T11:55:28;6.72;;;5.40;;
17141;SDS011;32805;53.556;9.944;2023-04-06T11:57:58;6.72;;;4.85;;
17141;SDS011;32805;53.556;9.944;2023-04-06T12:00:26;5.88;;;4.43;;
17141;SDS011;32805;53.556;9.944;2023-04-06T12:03:00;5.60;;;4.65;;
17141;SDS011;32805;53.556;9.944;2023-04-06T12:05:30;6.63;;;4.88;;
17141;SDS011;32805;53.556;9.944;2023-04-06T12:07:58;6.40;;;5.18;;
17141;SDS011;32805;53.556;9.944;2023-04-06T12:10:29;7.57;;;5.68;;
17141;SDS011;32805;53.556;9.944;2023-04-06T12:12:56;8.48;;;5.47;;
17141;SDS011;32805;53.556;9.944;2023-04-06T12:15:24;7.60;;;4.72;;
17141;SDS011;32805;53.556;9.944;2023-04-06T12:17:52;5.32;;;4.57;;
17141;SDS011;32805;53.556;9.944;2023-04-06T12:20:20;7.28;;;5.05;;
17141;SDS011;32805;53.556;9.944;2023-04-06T12:22:54;6.22;;;4.80;;
17141;SDS011;32805;53.556;9.944;2023-04-06T12:25:22;6.15;;;5.07;;
17141;SDS011;32805;53.556;9.944;2023-04-06T12:27:49;8.32;;;5.22;;
17141;SDS011;32805;53.556;9.944;2023-04-06T12:30:17;6.00;;;4.72;;
17141;SDS011;32805;53.556;9.944;2023-04-06T12:32:45;6.68;;;5.13;;
17141;SDS011;32805;53.556;9.944;2023-04-06T12:35:16;7.47;;;5.10;;
17141;SDS011;32805;53.556;9.944;2023-04-06T12:37:44;5.95;;;4.78;;
17141;SDS011;32805;53.556;9.944;2023-04-06T12:40:13;7.60;;;5.72;;
17141;SDS011;32805;53.556;9.944;2023-04-06T12:42:41;6.97;;;5.45;;
17141;SDS011;32805;53.556;9.944;2023-04-06T12:45:09;7.20;;;5.38;;
17141;SDS011;32805;53.556;9.944;2023-04-06T12:47:37;7.53;;;5.18;;
17141;SDS011;32805;53.556;9.944;2023-04-06T12:50:06;7.20;;;5.07;;
17141;SDS011;32805;53.556;9.944;2023-04-06T12:52:34;7.97;;;5.43;;
17141;SDS011;32805;53.556;9.944;2023-04-06T12:55:03;7.15;;;5.05;;
17141;SDS011;32805;53.556;9.944;2023-04-06T12:57:32;9.23;;;5.53;;
17141;SDS011;32805;53.556;9.944;2023-04-06T13:00:01;7.35;;;5.28;;
17141;SDS011;32805;53.556;9.944;2023-04-06T13:02:31;8.10;;;5.35;;
17141;SDS011;32805;53.556;9.944;2023-04-06T13:04:59;7.22;;;5.50;;
17141;SDS011;32805;53.556;9.944;2023-04-06T13:07:27;7.00;;;5.78;;
17141;SDS011;32805;53.556;9.944;2023-04-06T13:09:55;7.75;;;5.50;;
17141;SDS011;32805;53.556;9.944;2023-04-06T13:12:22;7.88;;;5.25;;
17141;SDS011;32805;53.556;9.944;2023-04-06T13:14:51;7.40;;;5.68;;
17141;SDS011;32805;53.556;9.944;2023-04-06T13:17:19;8.02;;;6.07;;
17141;SDS011;32805;53.556;9.944;2023-04-06T13:19:47;7.45;;;5.38;;
17141;SDS011;32805;53.556;9.944;2023-04-06T13:22:15;7.93;;;5.53;;
17141;SDS011;32805;53.556;9.944;2023-04-06T13:24:43;7.10;;;5.35;;
17141;SDS011;32805;53.556;9.944;2023-04-06T13:27:11;7.30;;;5.90;;
17141;SDS011;32805;53.556;9.944;2023-04-06T13:29:39;6.80;;;5.05;;
17141;SDS011;32805;53.556;9.944;2023-04-06T13:32:08;7.32;;;5.70;;
17141;SDS011;32805;53.556;9.944;2023-04-06T13:34:36;6.63;;;5.03;;
17141;SDS011;32805;53.556;9.944;2023-04-06T13:37:04;8.57;;;5.28;;
17141;SDS011;32805;53.556;9.944;2023-04-06T13:39:32;8.38;;;5.88;;
17141;SDS011;32805;53.556;9.944;2023-04-06T13:42:00;9.48;;;5.68;;
17141;SDS011;32805;53.556;9.944;2023-04-06T13:44:29;7.57;;;6.10;;
17141;SDS011;32805;53.556;9.944;2023-04-06T13:46:57;8.25;;;5.60;;
17141;SDS011;32805;53.556;9.944;2023-04-06T13:49:27;7.70;;;5.43;;
17141;SDS011;32805;53.556;9.944;2023-04-06T13:51:55;5.65;;;5.10;;
17141;SDS011;32805;53.556;9.944;2023-04-06T13:54:23;7.50;;;5.57;;
17141;SDS011;32805;53.556;9.944;2023-04-06T13:56:51;5.97;;;4.70;;
17141;SDS011;32805;53.556;9.944;2023-04-06T13:59:20;6.13;;;4.93;;
17141;SDS011;32805;53.556;9.944;2023-04-06T14:01:48;6.38;;;4.88;;
17141;SDS011;32805;53.556;9.944;2023-04-06T14:04:16;7.88;;;5.65;;
17141;SDS011;32805;53.556;9.944;2023-04-06T14:06:45;5.97;;;5.38;;
17141;SDS011;32805;53.556;9.944;2023-04-06T14:09:13;6.85;;;5.15;;
17141;SDS011;32805;53.556;9.944;2023-04-06T14:11:41;6.60;;;4.70;;
17141;SDS011;32805;53.556;9.944;2023-04-06T14:14:09;6.18;;;5.28;;
17141;SDS011;32805;53.556;9.944;2023-04-06T14:16:37;7.22;;;5.10;;
17141;SDS011;32805;53.556;9.944;2023-04-06T14:19:05;9.30;;;4.85;;
17141;SDS011;32805;53.556;9.944;2023-04-06T14:21:33;6.63;;;4.72;;
17141;SDS011;32805;53.556;9.944;2023-04-06T14:24:02;8.40;;;5.82;;
17141;SDS011;32805;53.556;9.944;2023-04-06T14:26:30;7.47;;;5.80;;
17141;SDS011;32805;53.556;9.944;2023-04-06T14:28:58;8.13;;;5.63;;
17141;SDS011;32805;53.556;9.944;2023-04-06T14:31:27;6.70;;;5.10;;
17141;SDS011;32805;53.556;9.944;2023-04-06T14:33:55;7.50;;;5.72;;
17141;SDS011;32805;53.556;9.944;2023-04-06T14:36:23;6.68;;;4.72;;
17141;SDS011;32805;53.556;9.944;2023-04-06T14:38:53;8.07;;;5.85;;
17141;SDS011;32805;53.556;9.944;2023-04-06T14:41:23;7.13;;;5.85;;
17141;SDS011;32805;53.556;9.944;2023-04-06T14:43:51;7.78;;;5.35;;
17141;SDS011;32805;53.556;9.944;2023-04-06T14:46:20;6.80;;;5.60;;
17141;SDS011;32805;53.556;9.944;2023-04-06T14:48:48;7.75;;;5.40;;
17141;SDS011;32805;53.556;9.944;2023-04-06T14:51:15;6.35;;;5.70;;
17141;SDS011;32805;53.556;9.944;2023-04-06T14:53:53;7.45;;;5.90;;
17141;SDS011;32805;53.556;9.944;2023-04-06T14:56:23;6.28;;;5.68;;
17141;SDS011;32805;53.556;9.944;2023-04-06T14:58:51;7.68;;;5.70;;
17141;SDS011;32805;53.556;9.944;2023-04-06T15:01:20;6.70;;;5.22;;
17141;SDS011;32805;53.556;9.944;2023-04-06T15:03:48;6.78;;;5.38;;